Time;durP1;ratioP1;P1;durP2;ratioP2;P2;SDS_P1;SDS_P2;PMS_P1;PMS_P2;Temp;Humidity;BMP_temperature;BMP_pressure;BME280_temperature;BME280_humidity;BME280_pressure;Samples;Min_cycle;Max_cycle;Signal;HPM_P1;HPM_P2
2022/07/22 05:00:13;;;;;;;11.10;10.10;;;22.20;97.20;;;;;;1694332;29;20187;-71
2022/07/22 05:01:03;;;;;;;11.15;10.15;;;22.20;97.20;;;;;;1694272;29;20589;-72
2022/07/22 05:01:55;;;;;;;11.83;10.57;;;22.20;97.20;;;;;;1694373;29;20635;-71
2022/07/22 05:02:46;;;;;;;12.25;11.15;;;22.20;97.20;;;;;;1694319;29;20211;-71
2022/07/22 05:04:30;;;;;;;12.55;11.38;;;22.20;97.20;;;;;;1725632;23;20726;-73
2022/07/22 05:05:22;;;;;;;11.27;10.27;;;22.20;97.20;;;;;;1700865;29;20211;-73
2022/07/22 05:06:14;;;;;;;11.80;10.80;;;22.20;97.20;;;;;;1700621;29;20206;-72
2022/07/22 05:07:05;;;;;;;13.23;10.52;;;22.20;97.20;;;;;;1700317;29;20218;-72
2022/07/22 05:07:56;;;;;;;11.03;10.00;;;22.30;97.20;;;;;;1700777;29;20286;-72
2022/07/22 05:08:47;;;;;;;11.35;10.15;;;22.30;97.20;;;;;;1700714;29;20459;-72
2022/07/22 05:09:39;;;;;;;10.63;9.73;;;22.30;97.20;;;;;;1700879;29;20239;-73
2022/07/22 05:10:30;;;;;;;11.85;10.75;;;22.30;97.20;;;;;;1700644;29;20237;-72
2022/07/22 05:11:21;;;;;;;12.70;10.83;;;22.30;97.20;;;;;;1700827;29;20207;-72
2022/07/22 05:12:12;;;;;;;11.20;10.25;;;22.30;97.20;;;;;;1700783;29;20278;-72
2022/07/22 05:13:04;;;;;;;11.00;10.00;;;22.30;97.20;;;;;;1701048;29;20298;-73
2022/07/22 05:13:54;;;;;;;12.00;10.82;;;22.30;97.20;;;;;;1700930;29;20222;-72
2022/07/22 05:14:46;;;;;;;10.03;9.23;;;22.30;97.20;;;;;;1704202;29;20277;-72
2022/07/22 05:15:38;;;;;;;12.15;11.02;;;22.30;97.20;;;;;;1707400;29;20671;-73
2022/07/22 05:16:30;;;;;;;10.90;9.90;;;22.40;97.20;;;;;;1707295;29;20570;-73
2022/07/22 05:17:21;;;;;;;10.23;9.35;;;22.40;97.20;;;;;;1707043;29;20221;-73
2022/07/22 05:18:13;;;;;;;11.73;10.70;;;22.40;97.20;;;;;;1707345;29;20286;-73
2022/07/22 05:19:04;;;;;;;11.80;10.70;;;22.40;97.20;;;;;;1707303;29;20615;-73
2022/07/22 05:19:56;;;;;;;12.50;11.32;;;22.40;97.20;;;;;;1707337;29;20722;-73
2022/07/22 05:20:46;;;;;;;13.43;10.55;;;22.40;97.20;;;;;;1707195;29;20592;-72
2022/07/22 05:21:38;;;;;;;11.47;10.57;;;22.40;97.20;;;;;;1707364;29;20636;-73
2022/07/22 05:22:29;;;;;;;11.55;10.55;;;22.40;97.20;;;;;;1707309;29;20218;-73
2022/07/22 05:23:21;;;;;;;11.70;10.80;;;22.40;97.20;;;;;;1707400;29;20705;-73
2022/07/22 05:24:12;;;;;;;10.73;9.82;;;22.50;97.20;;;;;;1707250;29;20222;-72
2022/07/22 05:25:04;;;;;;;11.18;10.18;;;22.50;97.20;;;;;;1707373;29;20246;-73
2022/07/22 05:25:55;;;;;;;11.13;10.10;;;22.50;97.20;;;;;;1707332;28;20206;-73
2022/07/22 05:26:47;;;;;;;11.10;10.00;;;22.50;97.20;;;;;;1706962;29;20302;-73
2022/07/22 05:27:38;;;;;;;11.40;10.43;;;22.50;97.20;;;;;;1707194;29;20206;-72
2022/07/22 05:28:29;;;;;;;11.43;10.43;;;22.50;97.20;;;;;;1706941;29;20294;-73
2022/07/22 05:29:20;;;;;;;11.77;10.77;;;22.50;97.20;;;;;;1707221;29;20218;-73
2022/07/22 05:30:13;;;;;;;11.20;10.30;;;22.50;97.20;;;;;;1707379;29;20290;-72
2022/07/22 05:31:05;;;;;;;11.23;10.18;;;22.60;97.20;;;;;;1707299;28;20214;-72
2022/07/22 05:31:57;;;;;;;11.70;10.60;;;22.60;97.20;;;;;;1707306;29;20206;-73
2022/07/22 05:32:48;;;;;;;11.27;10.27;;;22.60;97.20;;;;;;1707163;29;20206;-73
2022/07/22 05:33:39;;;;;;;12.57;11.20;;;22.60;97.20;;;;;;1707363;29;20207;-73
2022/07/22 05:34:31;;;;;;;12.35;11.13;;;22.60;97.20;;;;;;1707389;29;20548;-73
2022/07/22 05:35:22;;;;;;;11.67;10.60;;;22.60;97.20;;;;;;1707346;28;20613;-73
2022/07/22 05:36:13;;;;;;;11.90;10.82;;;22.60;97.20;;;;;;1707240;29;20992;-73
2022/07/22 05:37:05;;;;;;;12.33;11.17;;;22.60;97.20;;;;;;1707045;29;20678;-73
2022/07/22 05:37:56;;;;;;;11.82;10.82;;;22.60;97.20;;;;;;1707270;29;20698;-73
2022/07/22 05:38:47;;;;;;;12.50;11.20;;;22.60;97.20;;;;;;1707290;29;20742;-73
2022/07/22 05:39:38;;;;;;;13.30;12.07;;;22.60;97.20;;;;;;1707328;29;20453;-73
2022/07/22 05:40:30;;;;;;;11.93;10.57;;;22.60;97.20;;;;;;1707202;29;20294;-73
2022/07/22 05:41:21;;;;;;;12.43;11.25;;;22.60;97.20;;;;;;1707317;29;20663;-73
2022/07/22 05:42:13;;;;;;;12.53;11.40;;;22.60;97.20;;;;;;1707588;29;20743;-72
2022/07/22 05:43:03;;;;;;;11.43;10.27;;;22.60;97.20;;;;;;1707262;29;20584;-73
2022/07/22 05:43:55;;;;;;;13.10;12.00;;;22.60;97.20;;;;;;1707427;29;20328;-73
2022/07/22 05:44:46;;;;;;;12.13;11.15;;;22.70;97.20;;;;;;1707012;29;20202;-73
2022/07/22 05:45:38;;;;;;;11.47;10.47;;;22.70;97.20;;;;;;1707280;29;20289;-73
2022/07/22 05:46:30;;;;;;;12.82;11.45;;;22.70;97.20;;;;;;1707257;29;20217;-73
2022/07/22 05:47:22;;;;;;;11.55;10.52;;;22.70;97.20;;;;;;1707124;29;20202;-73
2022/07/22 05:48:12;;;;;;;12.70;11.40;;;22.70;97.20;;;;;;1707499;29;20199;-73
2022/07/22 05:49:04;;;;;;;11.53;10.53;;;22.70;97.20;;;;;;1707432;29;20239;-72
2022/07/22 05:49:55;;;;;;;11.50;10.40;;;22.70;97.20;;;;;;1707213;29;20214;-73
2022/07/22 05:50:47;;;;;;;11.87;10.67;;;22.70;97.20;;;;;;1707201;29;20310;-72
2022/07/22 05:51:37;;;;;;;12.38;10.63;;;22.80;97.20;;;;;;1707337;29;20206;-73
2022/07/22 05:52:29;;;;;;;11.40;10.43;;;22.80;97.20;;;;;;1707433;29;20281;-73
2022/07/22 05:53:20;;;;;;;12.98;11.88;;;22.80;97.20;;;;;;1707519;29;20214;-73
2022/07/22 05:54:12;;;;;;;12.50;11.32;;;22.80;97.20;;;;;;1707185;29;20309;-73
2022/07/22 05:55:04;;;;;;;11.52;10.52;;;22.80;97.20;;;;;;1707180;29;20202;-73
2022/07/22 05:55:55;;;;;;;12.07;11.07;;;22.80;97.20;;;;;;1707203;29;20235;-73
2022/07/22 05:56:46;;;;;;;11.70;10.55;;;22.80;97.20;;;;;;1706678;29;20213;-73
2022/07/22 05:57:38;;;;;;;12.00;10.83;;;22.80;97.20;;;;;;1707238;28;20213;-73
2022/07/22 05:58:29;;;;;;;12.25;10.95;;;22.90;97.20;;;;;;1707171;29;20273;-73
2022/07/22 05:59:20;;;;;;;12.50;11.30;;;22.90;97.20;;;;;;1707252;29;20202;-73
2022/07/22 06:00:12;;;;;;;12.27;11.13;;;22.90;97.20;;;;;;1707179;29;20199;-73
2022/07/22 06:01:04;;;;;;;11.43;10.40;;;22.90;97.20;;;;;;1707161;29;20230;-73
2022/07/22 06:01:56;;;;;;;11.93;10.82;;;22.90;97.20;;;;;;1707191;29;20209;-73
2022/07/22 06:02:48;;;;;;;12.30;11.20;;;22.90;97.20;;;;;;1707149;29;20692;-73
2022/07/22 06:03:39;;;;;;;12.18;11.05;;;22.90;97.20;;;;;;1707214;29;20217;-73
2022/07/22 06:04:31;;;;;;;13.30;12.02;;;22.90;97.20;;;;;;1707064;29;20230;-73
2022/07/22 06:05:22;;;;;;;12.40;11.30;;;23.00;97.20;;;;;;1707175;29;20207;-72
2022/07/22 06:06:14;;;;;;;12.30;11.30;;;23.00;97.20;;;;;;1707137;29;20686;-73
2022/07/22 06:07:06;;;;;;;12.45;11.25;;;23.00;97.20;;;;;;1707006;29;20589;-73
2022/07/22 06:07:58;;;;;;;12.98;11.88;;;23.00;97.20;;;;;;1707211;29;20713;-73
2022/07/22 06:08:48;;;;;;;13.07;11.80;;;23.00;97.20;;;;;;1707172;29;20203;-72
2022/07/22 06:09:40;;;;;;;12.50;11.40;;;23.10;97.20;;;;;;1707235;29;20293;-73
2022/07/22 06:10:31;;;;;;;13.05;11.85;;;23.10;97.20;;;;;;1707178;29;20206;-73
2022/07/22 06:11:23;;;;;;;13.30;12.07;;;23.10;97.20;;;;;;1706756;28;20191;-72
2022/07/22 06:12:13;;;;;;;13.82;12.52;;;23.10;97.20;;;;;;1707131;29;20445;-72
2022/07/22 06:13:05;;;;;;;13.40;12.00;;;23.20;97.20;;;;;;1706890;29;20197;-72
2022/07/22 06:13:56;;;;;;;11.77;10.75;;;23.20;97.20;;;;;;1707108;29;20701;-73
2022/07/22 06:14:48;;;;;;;12.07;11.07;;;23.20;97.20;;;;;;1707118;29;20676;-73
2022/07/22 06:15:39;;;;;;;12.38;11.27;;;23.20;97.20;;;;;;1707237;29;20687;-73
2022/07/22 06:16:32;;;;;;;12.00;10.82;;;23.20;97.20;;;;;;1707046;29;20260;-73
2022/07/22 06:17:24;;;;;;;13.85;11.68;;;23.20;97.20;;;;;;1707177;28;20206;-73
2022/07/22 06:18:16;;;;;;;11.73;10.73;;;23.20;97.20;;;;;;1707092;29;20697;-73
2022/07/22 06:19:06;;;;;;;12.00;10.90;;;23.30;97.20;;;;;;1707147;29;20310;-73
2022/07/22 06:19:58;;;;;;;12.90;10.63;;;23.30;97.20;;;;;;1707185;29;20302;-73
2022/07/22 06:20:49;;;;;;;12.43;11.20;;;23.30;97.20;;;;;;1707012;29;20206;-73
2022/07/22 06:21:41;;;;;;;12.00;11.00;;;23.30;97.20;;;;;;1707220;28;20297;-73
2022/07/22 06:22:32;;;;;;;12.77;11.68;;;23.40;97.20;;;;;;1707706;29;20450;-72
2022/07/22 06:23:24;;;;;;;14.40;12.20;;;23.40;97.20;;;;;;1708503;29;20210;-73
2022/07/22 06:24:15;;;;;;;12.93;11.73;;;23.40;97.20;;;;;;1708336;29;21004;-73
2022/07/22 06:25:08;;;;;;;12.27;11.13;;;23.40;97.20;;;;;;1708120;29;20672;-72
2022/07/22 06:25:59;;;;;;;12.40;10.52;;;23.50;97.20;;;;;;1708364;29;20209;-73
2022/07/22 06:26:51;;;;;;;11.90;10.83;;;23.50;97.20;;;;;;1708159;29;20202;-73
2022/07/22 06:27:41;;;;;;;12.15;11.15;;;23.50;97.20;;;;;;1708385;29;20827;-73
2022/07/22 06:28:33;;;;;;;12.30;11.20;;;23.50;97.20;;;;;;1708314;29;20248;-73
2022/07/22 06:29:24;;;;;;;12.85;10.60;;;23.50;97.20;;;;;;1708304;29;20210;-73
2022/07/22 06:30:16;;;;;;;11.80;10.90;;;23.50;97.20;;;;;;1708417;29;20298;-73
2022/07/22 06:31:07;;;;;;;13.90;12.60;;;23.50;97.20;;;;;;1708414;29;20198;-73
2022/07/22 06:31:58;;;;;;;11.90;10.82;;;23.50;97.20;;;;;;1708499;29;20287;-73
2022/07/22 06:32:50;;;;;;;12.00;10.85;;;23.60;97.20;;;;;;1708382;28;20748;-73
2022/07/22 06:33:42;;;;;;;13.35;11.43;;;23.60;97.20;;;;;;1708298;29;20241;-73
2022/07/22 06:34:33;;;;;;;12.30;11.30;;;23.60;97.20;;;;;;1708457;29;20210;-73
2022/07/22 06:35:25;;;;;;;13.70;12.30;;;23.60;97.20;;;;;;1708392;29;20202;-73
2022/07/22 06:36:17;;;;;;;13.55;12.15;;;23.60;97.20;;;;;;1708301;29;20210;-73
2022/07/22 06:37:09;;;;;;;12.63;11.52;;;23.60;97.20;;;;;;1708128;29;20726;-73
2022/07/22 06:38:00;;;;;;;12.68;11.40;;;23.60;97.20;;;;;;1708404;29;20213;-73
2022/07/22 06:38:51;;;;;;;13.13;11.73;;;23.60;97.20;;;;;;1708067;29;20293;-73
2022/07/22 06:39:42;;;;;;;22.02;11.85;;;23.60;97.20;;;;;;1708337;29;20252;-73
2022/07/22 06:40:35;;;;;;;11.70;10.63;;;23.70;97.20;;;;;;1708309;29;20202;-73
2022/07/22 06:41:26;;;;;;;11.50;10.50;;;23.70;97.20;;;;;;1708203;29;20236;-73
2022/07/22 06:42:17;;;;;;;12.13;10.95;;;23.70;97.20;;;;;;1708363;29;20710;-73
2022/07/22 06:43:08;;;;;;;11.35;10.25;;;23.70;97.20;;;;;;1708250;29;20209;-73
2022/07/22 06:44:00;;;;;;;12.50;11.33;;;23.70;97.20;;;;;;1708303;29;20210;-73
2022/07/22 06:44:51;;;;;;;12.43;11.38;;;23.80;97.20;;;;;;1708327;29;20211;-73
2022/07/22 06:45:42;;;;;;;11.63;10.60;;;23.80;97.20;;;;;;1708301;29;20202;-73
2022/07/22 06:46:33;;;;;;;12.25;11.27;;;23.80;97.20;;;;;;1707916;29;20469;-73
2022/07/22 06:47:25;;;;;;;11.63;10.63;;;23.80;97.20;;;;;;1708283;29;20205;-73
2022/07/22 06:48:17;;;;;;;11.73;10.55;;;23.80;97.20;;;;;;1708178;29;20213;-73
2022/07/22 06:49:09;;;;;;;11.45;10.45;;;23.80;97.20;;;;;;1708250;29;20203;-73
2022/07/22 06:50:00;;;;;;;11.20;10.20;;;23.80;97.20;;;;;;1708331;29;20685;-73
2022/07/22 06:50:51;;;;;;;11.80;10.70;;;23.90;97.20;;;;;;1708304;29;20632;-72
2022/07/22 06:51:42;;;;;;;11.80;10.88;;;23.90;97.20;;;;;;1708359;29;20213;-73
2022/07/22 06:52:34;;;;;;;11.03;9.70;;;23.90;97.20;;;;;;1708164;29;20471;-73
2022/07/22 06:53:25;;;;;;;10.90;9.90;;;23.90;97.20;;;;;;1708242;29;20217;-73
2022/07/22 06:54:17;;;;;;;10.97;9.87;;;23.90;97.20;;;;;;1708234;29;20225;-73
2022/07/22 06:55:08;;;;;;;10.60;9.80;;;24.00;97.20;;;;;;1708226;29;20206;-73
2022/07/22 06:56:00;;;;;;;10.77;9.70;;;24.00;97.20;;;;;;1708230;29;20206;-73
2022/07/22 06:56:51;;;;;;;9.85;9.05;;;24.00;97.20;;;;;;1707967;28;20203;-73
2022/07/22 06:57:43;;;;;;;10.60;9.50;;;24.10;97.20;;;;;;1708243;29;20228;-73
2022/07/22 06:58:34;;;;;;;12.35;9.80;;;24.10;97.20;;;;;;1708145;29;20211;-73
2022/07/22 06:59:25;;;;;;;12.00;9.73;;;24.10;97.20;;;;;;1708183;29;20302;-73
2022/07/22 07:00:17;;;;;;;10.63;9.82;;;24.10;97.20;;;;;;1707931;29;20454;-73
2022/07/22 07:01:09;;;;;;;11.98;9.88;;;24.10;97.20;;;;;;1708110;29;20198;-73
2022/07/22 07:01:59;;;;;;;10.35;9.65;;;24.20;97.20;;;;;;1708280;29;20472;-73
2022/07/22 07:02:51;;;;;;;11.47;10.37;;;24.20;97.20;;;;;;1708255;29;20659;-73
2022/07/22 07:03:43;;;;;;;13.38;9.15;;;24.20;97.20;;;;;;1708136;29;20214;-73
2022/07/22 07:04:35;;;;;;;10.75;9.57;;;24.20;97.20;;;;;;1708263;29;20210;-73
2022/07/22 07:05:27;;;;;;;11.30;10.20;;;24.20;97.20;;;;;;1708264;29;20206;-73
2022/07/22 07:06:19;;;;;;;11.98;10.95;;;24.20;97.20;;;;;;1707909;29;20476;-73
2022/07/22 07:07:09;;;;;;;12.18;11.18;;;24.30;97.20;;;;;;1707866;29;20207;-73
2022/07/22 07:08:01;;;;;;;12.20;10.73;;;24.30;97.20;;;;;;1708119;29;20293;-73
2022/07/22 07:08:52;;;;;;;12.52;11.27;;;24.30;97.20;;;;;;1708135;29;20215;-73
2022/07/22 07:09:43;;;;;;;11.90;10.80;;;24.30;97.20;;;;;;1708177;29;20234;-72
2022/07/22 07:10:34;;;;;;;13.15;12.05;;;24.20;97.20;;;;;;1708206;29;20209;-73
2022/07/22 07:11:26;;;;;;;12.47;11.10;;;24.20;97.20;;;;;;1708187;29;20198;-73
2022/07/22 07:12:17;;;;;;;12.30;11.30;;;24.20;97.20;;;;;;1708184;29;20446;-73
2022/07/22 07:13:09;;;;;;;13.10;11.93;;;24.20;97.20;;;;;;1708128;29;20206;-73
2022/07/22 07:13:59;;;;;;;12.68;11.57;;;24.20;97.20;;;;;;1708127;29;20207;-73
2022/07/22 07:14:51;;;;;;;12.60;11.50;;;24.20;97.20;;;;;;1708156;29;20207;-73
2022/07/22 07:15:42;;;;;;;11.60;10.48;;;24.20;97.20;;;;;;1708147;29;20678;-73
2022/07/22 07:16:34;;;;;;;11.53;10.40;;;24.20;97.20;;;;;;1707866;29;20549;-73
2022/07/22 07:17:24;;;;;;;12.27;11.10;;;24.20;97.20;;;;;;1708164;29;20655;-73
2022/07/22 07:18:16;;;;;;;12.17;11.07;;;24.20;97.20;;;;;;1708013;29;20648;-73
2022/07/22 07:19:08;;;;;;;11.48;10.38;;;24.20;97.20;;;;;;1708121;29;20580;-73
2022/07/22 07:20:00;;;;;;;11.30;10.27;;;24.20;97.20;;;;;;1707885;29;20237;-73
2022/07/22 07:20:51;;;;;;;12.40;10.35;;;24.20;97.20;;;;;;1708147;29;20207;-72
2022/07/22 07:21:42;;;;;;;10.97;10.03;;;24.20;97.20;;;;;;1708068;29;20318;-73
2022/07/22 07:22:34;;;;;;;15.05;11.07;;;24.30;97.20;;;;;;1707775;29;20230;-73
2022/07/22 07:23:25;;;;;;;12.10;11.05;;;24.30;97.20;;;;;;1708083;29;20290;-73
2022/07/22 07:24:16;;;;;;;17.58;11.25;;;24.30;97.20;;;;;;1708051;29;20596;-73
2022/07/22 07:25:09;;;;;;;11.77;10.73;;;24.30;97.20;;;;;;1708047;29;20647;-73
2022/07/22 07:26:00;;;;;;;11.48;10.32;;;24.40;97.20;;;;;;1708070;28;20338;-73
2022/07/22 07:26:52;;;;;;;11.10;10.10;;;24.40;97.20;;;;;;1707770;29;20236;-73
2022/07/22 07:27:43;;;;;;;11.98;10.75;;;24.40;97.20;;;;;;1708099;29;20211;-73
2022/07/22 07:28:34;;;;;;;12.00;11.00;;;24.50;97.20;;;;;;1707994;29;20738;-73
2022/07/22 07:29:25;;;;;;;13.85;12.40;;;24.50;97.20;;;;;;1707982;29;20206;-72
2022/07/22 07:30:17;;;;;;;13.60;12.30;;;24.50;97.20;;;;;;1708063;29;20278;-73
2022/07/22 07:31:08;;;;;;;12.73;11.45;;;24.50;97.20;;;;;;1708010;29;20685;-73
2022/07/22 07:32:00;;;;;;;12.02;10.50;;;24.50;97.20;;;;;;1707988;29;20202;-73
2022/07/22 07:32:51;;;;;;;11.93;10.73;;;24.50;97.20;;;;;;1707948;29;20681;-73
2022/07/22 07:33:42;;;;;;;12.67;10.90;;;24.60;97.20;;;;;;1707657;28;20671;-73
2022/07/22 07:34:35;;;;;;;10.63;9.63;;;24.60;97.20;;;;;;1707742;29;20616;-73
2022/07/22 07:35:27;;;;;;;12.55;11.40;;;24.60;97.20;;;;;;1708011;28;20269;-73
2022/07/22 07:36:18;;;;;;;11.60;10.50;;;24.60;97.20;;;;;;1707993;29;20206;-73
2022/07/22 07:37:10;;;;;;;13.00;11.90;;;24.60;97.20;;;;;;1707889;29;20198;-73
2022/07/22 07:38:00;;;;;;;13.65;11.88;;;24.60;97.20;;;;;;1708113;28;20226;-73
2022/07/22 07:38:52;;;;;;;11.57;10.57;;;24.60;97.20;;;;;;1708170;29;20293;-73
2022/07/22 07:39:43;;;;;;;12.63;11.52;;;24.50;97.20;;;;;;1708060;29;20584;-73
2022/07/22 07:40:35;;;;;;;12.27;11.23;;;24.50;97.20;;;;;;1708035;28;20379;-73
2022/07/22 07:41:26;;;;;;;12.77;11.60;;;24.50;97.20;;;;;;1707981;29;20457;-73
2022/07/22 07:42:18;;;;;;;12.77;11.73;;;24.50;97.20;;;;;;1708089;29;20298;-73
2022/07/22 07:43:08;;;;;;;11.98;10.82;;;24.50;97.20;;;;;;1708189;28;20210;-73
2022/07/22 07:44:00;;;;;;;13.13;12.13;;;24.50;97.20;;;;;;1707973;29;20208;-73
2022/07/22 07:44:51;;;;;;;13.05;11.88;;;24.50;97.20;;;;;;1707876;29;20620;-73
2022/07/22 07:45:43;;;;;;;13.20;12.10;;;24.50;97.20;;;;;;1708055;29;20245;-73
2022/07/22 07:46:34;;;;;;;13.25;12.05;;;24.50;97.20;;;;;;1707796;29;20465;-73
2022/07/22 07:47:26;;;;;;;13.37;12.20;;;24.40;97.20;;;;;;1708173;29;20281;-73
2022/07/22 07:48:18;;;;;;;12.40;11.30;;;24.40;97.20;;;;;;1707654;29;20215;-73
2022/07/22 07:49:08;;;;;;;12.20;11.18;;;24.50;97.20;;;;;;1707887;29;20210;-73
2022/07/22 07:50:02;;;;;;;12.70;10.53;;;24.50;97.20;;;;;;1707866;29;20238;-73
2022/07/22 07:50:53;;;;;;;11.80;10.70;;;24.50;97.20;;;;;;1707868;29;20234;-73
2022/07/22 07:51:44;;;;;;;12.43;11.27;;;24.50;97.20;;;;;;1707841;29;20205;-73
2022/07/22 07:52:38;;;;;;;13.63;12.52;;;24.60;97.20;;;;;;1707779;29;20792;-73
2022/07/22 07:53:29;;;;;;;14.20;13.10;;;24.60;97.20;;;;;;1707764;29;20205;-73
2022/07/22 07:54:20;;;;;;;14.57;13.00;;;24.60;97.20;;;;;;1707852;29;20227;-72
2022/07/22 07:55:12;;;;;;;14.53;13.03;;;24.60;97.20;;;;;;1707868;29;20222;-73
2022/07/22 07:56:03;;;;;;;15.00;13.60;;;24.60;97.20;;;;;;1707816;28;20198;-73
2022/07/22 07:56:55;;;;;;;14.97;13.43;;;24.60;97.20;;;;;;1707550;29;20262;-73
2022/07/22 07:57:48;;;;;;;13.93;12.73;;;24.60;97.20;;;;;;1707765;29;20461;-73
2022/07/22 07:58:40;;;;;;;15.43;13.02;;;24.60;97.20;;;;;;1707912;28;20199;-73
2022/07/22 07:59:31;;;;;;;12.73;11.48;;;24.60;97.20;;;;;;1707770;29;20214;-73
2022/07/22 08:00:26;;;;;;;13.20;12.00;;;24.60;97.20;;;;;;1706761;29;20762;-73
2022/07/22 08:01:17;;;;;;;13.23;12.05;;;24.60;97.20;;;;;;1707796;29;20246;-73
2022/07/22 08:02:09;;;;;;;13.73;12.43;;;24.60;97.20;;;;;;1707776;29;20207;-73
2022/07/22 08:03:01;;;;;;;13.02;11.80;;;24.70;97.20;;;;;;1707813;29;20203;-73
2022/07/22 08:03:53;;;;;;;16.13;14.68;;;24.70;97.20;;;;;;1707579;29;20209;-73
2022/07/22 08:04:43;;;;;;;14.77;13.32;;;24.80;97.20;;;;;;1707897;29;20229;-72
2022/07/22 08:05:38;;;;;;;13.53;12.23;;;24.80;97.20;;;;;;1707728;29;20218;-73
2022/07/22 08:06:29;;;;;;;14.60;12.10;;;24.80;97.20;;;;;;1707777;29;20237;-73
2022/07/22 08:07:21;;;;;;;12.63;11.43;;;24.80;97.20;;;;;;1707587;29;20202;-73
2022/07/22 08:08:12;;;;;;;14.07;12.82;;;24.80;97.20;;;;;;1707675;29;20766;-73
2022/07/22 08:09:04;;;;;;;13.03;11.93;;;24.90;97.20;;;;;;1707837;29;20298;-73
2022/07/22 08:09:54;;;;;;;13.32;12.00;;;24.90;97.20;;;;;;1707787;28;20214;-73
2022/07/22 08:10:47;;;;;;;16.13;13.47;;;25.00;97.20;;;;;;1707861;29;20232;-73
2022/07/22 08:11:37;;;;;;;17.35;13.40;;;25.00;97.20;;;;;;1707734;29;20576;-73
2022/07/22 08:12:29;;;;;;;15.33;13.43;;;25.00;97.20;;;;;;1707779;29;20567;-73
2022/07/22 08:13:20;;;;;;;14.27;12.77;;;25.00;97.20;;;;;;1707852;29;20214;-73
2022/07/22 08:14:12;;;;;;;13.63;12.23;;;25.00;97.20;;;;;;1707635;29;20305;-73
2022/07/22 08:15:04;;;;;;;12.00;10.90;;;25.00;97.20;;;;;;1707548;29;20337;-73
2022/07/22 08:15:56;;;;;;;12.43;11.18;;;25.00;97.20;;;;;;1707778;29;20194;-73
2022/07/22 08:16:46;;;;;;;13.27;11.90;;;25.00;97.20;;;;;;1707303;29;20237;-73
2022/07/22 08:17:38;;;;;;;12.43;11.20;;;25.10;97.20;;;;;;1707682;29;20209;-73
2022/07/22 08:18:29;;;;;;;14.70;13.30;;;25.10;97.20;;;;;;1707681;29;20210;-73
2022/07/22 08:19:21;;;;;;;13.65;12.45;;;25.10;97.20;;;;;;1707743;29;20568;-73
2022/07/22 08:20:12;;;;;;;13.02;11.93;;;25.20;97.20;;;;;;1707645;29;20215;-73
2022/07/22 08:21:05;;;;;;;13.63;12.27;;;25.20;97.20;;;;;;1707741;29;20248;-73
2022/07/22 08:21:55;;;;;;;12.73;11.63;;;25.20;97.20;;;;;;1707584;29;20249;-73
2022/07/22 08:22:47;;;;;;;12.43;11.07;;;25.20;97.20;;;;;;1707708;29;20309;-73
2022/07/22 08:23:38;;;;;;;15.07;10.65;;;25.20;97.20;;;;;;1707783;29;20430;-73
2022/07/22 08:24:30;;;;;;;12.03;10.93;;;25.30;97.20;;;;;;1707562;29;20226;-73
2022/07/22 08:25:21;;;;;;;12.98;11.85;;;25.30;97.20;;;;;;1707771;29;20206;-73
2022/07/22 08:26:13;;;;;;;13.77;11.25;;;25.40;97.20;;;;;;1707622;29;20541;-73
2022/07/22 08:27:04;;;;;;;11.85;10.85;;;25.40;97.20;;;;;;1706974;29;20210;-73
2022/07/22 08:27:56;;;;;;;12.10;10.87;;;25.50;97.20;;;;;;1706840;29;20289;-73
2022/07/22 08:28:47;;;;;;;12.50;11.20;;;25.50;97.20;;;;;;1707489;29;20472;-73
2022/07/22 08:29:39;;;;;;;11.30;10.20;;;25.60;97.20;;;;;;1707650;29;20202;-73
2022/07/22 08:30:30;;;;;;;12.63;10.77;;;25.60;97.20;;;;;;1707671;29;20606;-73
2022/07/22 08:31:22;;;;;;;14.00;11.97;;;25.70;97.20;;;;;;1707696;29;20949;-73
2022/07/22 08:32:13;;;;;;;13.83;12.63;;;25.70;97.20;;;;;;1707625;29;20539;-73
2022/07/22 08:33:05;;;;;;;11.90;10.90;;;25.80;97.20;;;;;;1707679;29;20453;-73
2022/07/22 08:33:56;;;;;;;11.57;10.57;;;25.80;97.20;;;;;;1707637;29;20455;-73
2022/07/22 08:34:47;;;;;;;10.50;9.57;;;25.80;97.20;;;;;;1707586;29;20477;-73
2022/07/22 08:35:38;;;;;;;11.23;10.23;;;25.80;97.20;;;;;;1707703;28;20671;-73
2022/07/22 08:36:33;;;;;;;11.20;10.10;;;25.80;97.20;;;;;;1701156;29;21074;-73
2022/07/22 08:37:25;;;;;;;11.63;10.47;;;25.90;97.20;;;;;;1704231;29;20659;-73
2022/07/22 08:38:17;;;;;;;15.87;11.97;;;25.90;97.20;;;;;;1707267;29;20513;-73
2022/07/22 08:39:07;;;;;;;13.03;11.37;;;25.90;97.20;;;;;;1707425;28;20970;-72
2022/07/22 08:39:59;;;;;;;12.50;11.37;;;26.00;97.20;;;;;;1707533;29;20478;-73
2022/07/22 08:40:53;;;;;;;10.43;9.50;;;26.10;97.20;;;;;;1706931;29;20210;-73
2022/07/22 08:41:46;;;;;;;10.80;9.73;;;26.10;97.20;;;;;;1707073;28;21017;-73
2022/07/22 08:42:38;;;;;;;12.13;10.93;;;26.10;97.20;;;;;;1706859;29;20461;-73
2022/07/22 08:43:30;;;;;;;12.80;11.03;;;26.20;97.20;;;;;;1706900;29;20861;-73
2022/07/22 08:44:21;;;;;;;13.95;11.43;;;26.30;97.20;;;;;;1707347;29;20470;-73
2022/07/22 08:45:13;;;;;;;12.30;11.13;;;26.30;97.20;;;;;;1706630;28;20203;-73
2022/07/22 08:46:04;;;;;;;11.68;10.57;;;26.30;97.20;;;;;;1707520;28;20446;-73
2022/07/22 08:46:56;;;;;;;12.70;11.60;;;26.40;97.20;;;;;;1707380;29;20294;-73
2022/07/22 08:47:49;;;;;;;12.52;10.20;;;26.40;97.20;;;;;;1707474;28;20454;-73
2022/07/22 08:48:41;;;;;;;12.57;11.27;;;26.50;97.20;;;;;;1707649;29;20237;-73
2022/07/22 08:49:32;;;;;;;14.00;10.35;;;26.50;97.20;;;;;;1707557;29;20563;-73
2022/07/22 08:50:23;;;;;;;12.37;10.83;;;26.50;97.20;;;;;;1707532;29;20309;-73
2022/07/22 08:51:15;;;;;;;11.80;10.57;;;26.60;97.20;;;;;;1707487;29;20521;-73
2022/07/22 08:52:07;;;;;;;11.98;10.90;;;26.60;97.20;;;;;;1707515;29;20674;-73
2022/07/22 08:52:59;;;;;;;12.05;11.05;;;26.70;97.20;;;;;;1707572;29;20210;-73
2022/07/22 08:53:50;;;;;;;12.07;10.82;;;26.70;97.20;;;;;;1707444;29;20583;-73
2022/07/22 08:54:42;;;;;;;12.23;10.50;;;26.70;97.20;;;;;;1702129;29;20220;-73
2022/07/22 08:55:33;;;;;;;12.90;11.53;;;26.70;97.20;;;;;;1700732;29;20303;-73
2022/07/22 08:56:24;;;;;;;13.97;12.40;;;26.70;97.20;;;;;;1703036;29;20454;-73
2022/07/22 08:57:16;;;;;;;12.23;11.23;;;26.80;97.20;;;;;;1705019;29;20199;-73
2022/07/22 08:58:08;;;;;;;14.98;13.60;;;26.80;97.20;;;;;;1706812;29;20261;-73
2022/07/22 08:58:59;;;;;;;13.47;12.07;;;26.80;97.20;;;;;;1706293;29;20202;-73
2022/07/22 08:59:52;;;;;;;12.93;11.93;;;26.90;97.20;;;;;;1706757;29;20525;-73
2022/07/22 09:00:43;;;;;;;16.98;12.63;;;26.90;97.20;;;;;;1706680;29;20214;-73
2022/07/22 09:01:34;;;;;;;12.73;11.57;;;26.90;97.20;;;;;;1707281;29;20285;-73
2022/07/22 09:02:26;;;;;;;12.30;11.03;;;26.90;97.20;;;;;;1707419;29;20489;-73
2022/07/22 09:03:21;;;;;;;13.70;9.90;;;27.00;97.20;;;;;;1707454;29;20442;-73
2022/07/22 09:04:12;;;;;;;11.40;10.20;;;27.00;97.20;;;;;;1707271;29;20844;-73
2022/07/22 09:05:06;;;;;;;12.47;10.50;;;27.00;97.20;;;;;;1707426;29;20470;-73
2022/07/22 09:05:58;;;;;;;11.20;10.13;;;27.00;97.20;;;;;;1707558;28;20207;-73
2022/07/22 09:06:50;;;;;;;10.47;9.40;;;27.10;97.20;;;;;;1707163;29;20961;-73
2022/07/22 09:07:44;;;;;;;10.80;9.70;;;27.10;97.20;;;;;;1707431;29;20957;-73
2022/07/22 09:08:51;;;;;;;11.60;10.50;;;27.10;97.20;;;;;;1707309;29;20211;-73
2022/07/22 09:09:42;;;;;;;14.50;10.97;;;27.20;97.20;;;;;;1707534;29;20823;-73
2022/07/22 09:10:35;;;;;;;10.60;9.27;;;27.20;97.20;;;;;;1707384;29;20468;-73
2022/07/22 09:11:28;;;;;;;9.82;8.90;;;27.20;97.20;;;;;;1707476;29;20199;-73
2022/07/22 09:12:20;;;;;;;10.07;9.10;;;27.20;97.20;;;;;;1707460;29;20243;-73
2022/07/22 09:13:11;;;;;;;10.17;8.93;;;27.20;97.20;;;;;;1707347;29;20524;-73
2022/07/22 09:14:03;;;;;;;11.63;9.17;;;27.30;97.20;;;;;;1707514;29;20464;-73
2022/07/22 09:14:56;;;;;;;10.00;9.10;;;27.30;97.20;;;;;;1707520;29;20880;-73
2022/07/22 09:15:50;;;;;;;10.10;9.20;;;27.30;97.20;;;;;;1707013;28;20465;-73
2022/07/22 09:16:42;;;;;;;12.17;9.93;;;27.30;97.20;;;;;;1707219;29;20450;-73
2022/07/22 09:17:36;;;;;;;14.20;10.40;;;27.30;97.20;;;;;;1707299;29;20478;-73
2022/07/22 09:18:27;;;;;;;10.73;9.70;;;27.30;97.20;;;;;;1707322;29;20536;-73
2022/07/22 09:19:32;;;;;;;10.37;9.50;;;27.40;97.20;;;;;;1707386;29;20501;-73
2022/07/22 09:20:23;;;;;;;10.80;9.80;;;27.40;97.20;;;;;;1707280;28;20234;-73
2022/07/22 09:21:15;;;;;;;10.10;9.27;;;27.50;97.20;;;;;;1707312;29;20614;-73
2022/07/22 09:22:07;;;;;;;9.80;8.90;;;27.50;97.20;;;;;;1707273;29;20930;-73
2022/07/22 09:22:59;;;;;;;13.20;9.40;;;27.50;97.20;;;;;;1707349;28;21066;-73